Marble Falls' Hourly Summary for Saturday, May 12, 2018
Hour Temp
(f)
RH
(%)
Solar Rad.
(MJ/m2)
Rainfall
(in)
Wind
(mph)
5/12/2018 12:00 AM 76 72 0 0 7.31
5/12/2018 1:00 AM 75 79 0 0 6.83
5/12/2018 2:00 AM 74 80 0 0 7.25
5/12/2018 3:00 AM 73 80 0 0 7.25
5/12/2018 4:00 AM 72 80 0 0 6.47
5/12/2018 5:00 AM 71 83 0 0 5.82
5/12/2018 6:00 AM 70 86 0 0 4.09
5/12/2018 7:00 AM 69 86 0 0 2.74
5/12/2018 8:00 AM 72 82 0.51 0 5.14
5/12/2018 9:00 AM 75 76 1.85 0 7.71
5/12/2018 10:00 AM 79 59 2.51 0 7.71
5/12/2018 11:00 AM 79 54 2.51 0 6.42
5/12/2018 12:00 PM 82 52 2.28 0 5.98
5/12/2018 1:00 PM 84 48 2.84 0 7.2
5/12/2018 2:00 PM 86 43 2.84 0 7.2
5/12/2018 3:00 PM 88 42 2.94 0 7.67
5/12/2018 4:00 PM 89 39 2.94 0 8.09
5/12/2018 5:00 PM 89 39 2.52 0 8.11
5/12/2018 6:00 PM 89 39 1.9 0 8.11
5/12/2018 7:00 PM 89 40 1.19 0 6.75
5/12/2018 8:00 PM 87 43 0.5 0 5.85
5/12/2018 9:00 PM 85 49 0.02 0 5.6
5/12/2018 10:00 PM 82 57 0 0 7.26
5/12/2018 11:00 PM 80 65 0 0 8.5
Data Summary 79 61 27.35 0.00 6.71